< < Back
Terminal Aerodrome Forecast


Current Version              Previous Versions:   1  2  3  4  5  6  7  8  9  

Terminal Aerodrome Forecast

845
FTUS42 KCHS 220500
TAFSAV
TAF
KSAV 220524Z 2206/2306 32006KT P6SM SKC
     FM221330 35009G15KT P6SM SKC
     FM221800 34007KT P6SM SKC=



Latest METAR

064
SAUS80 KWBC 221200 RRC
MTRSAV
METAR KSAV 221153Z 01007KT 10SM CLR 12/07 A3003 RMK AO2 SLP169 7////
T01170072 10156 20111 51022


USA.gov is the U.S. government's official web portal to all federal, state and local government web resources and services.